Daugavpils Intrenational Airport


Codes: EVDA/DGP
Name: Daugavpils Intrenational Airport
City: Daugavpils
Country: Latvia
Elevation: 398 ft.
Wikipedia:

Photos at Daugavpils Intrenational Airport


   Photos courtesy of SpottingLog. You can add your own sightings and photos by signing up for a free trial today.



No photos found.

Weather at Daugavpils Intrenational Airport


Time (UTC)DescriptionTempratureWindCloud coverageVisibilityPressureHumidity
18-Apr-2024 00:00Scattered Clouds2°C2 mph, E40%10000m1007hPa92%
18-Apr-2024 03:00Scattered Clouds2°C2 mph, E45%10000m1007hPa93%
18-Apr-2024 06:00Scattered Clouds5°C2 mph, NE39%10000m1008hPa81%
18-Apr-2024 09:00Light Rain10°C4 mph, E38%10000m1008hPa55%
18-Apr-2024 12:00Light Rain10°C7 mph, E66%10000m1008hPa54%
18-Apr-2024 15:00Light Rain9°C7 mph, NE100%10000m1008hPa64%
18-Apr-2024 18:00Light Rain5°C7 mph, NE100%10000m1009hPa76%
18-Apr-2024 21:00Overcast Clouds4°C7 mph, NE100%10000m1007hPa80%
19-Apr-2024 00:00Overcast Clouds3°C9 mph, N100%10000m1006hPa83%
19-Apr-2024 03:00Overcast Clouds2°C9 mph, N100%10000m1005hPa82%
19-Apr-2024 06:00Overcast Clouds3°C9 mph, N100%10000m1004hPa65%
19-Apr-2024 09:00Overcast Clouds5°C11 mph, NW100%10000m1003hPa51%
19-Apr-2024 12:00Overcast Clouds7°C11 mph, NW100%10000m1002hPa49%
19-Apr-2024 15:00Overcast Clouds7°C9 mph, NW100%10000m1003hPa55%
19-Apr-2024 18:00Overcast Clouds3°C4 mph, W100%10000m1004hPa78%
19-Apr-2024 21:00Broken Clouds1°C4 mph, W78%10000m1006hPa88%
20-Apr-2024 00:00Broken Clouds-0°C2 mph, W60%10000m1007hPa88%
20-Apr-2024 03:00Overcast Clouds0°C0 mph, S99%10000m1008hPa85%
20-Apr-2024 06:00Overcast Clouds4°C2 mph, S95%10000m1009hPa80%
20-Apr-2024 09:00Overcast Clouds5°C4 mph, S100%10000m1011hPa83%
20-Apr-2024 12:00Light Rain7°C4 mph, S100%10000m1013hPa79%
20-Apr-2024 15:00Light Rain8°C0 mph, NE100%10000m1014hPa78%
20-Apr-2024 18:00Moderate Rain6°C4 mph, NE100%10000m1016hPa96%
20-Apr-2024 21:00Overcast Clouds5°C4 mph, N100%10000m1018hPa97%
21-Apr-2024 00:00Overcast Clouds5°C2 mph, NE100%10000m1019hPa96%
21-Apr-2024 03:00Broken Clouds4°C4 mph, SE76%10000m1020hPa96%
21-Apr-2024 06:00Broken Clouds8°C4 mph, E55%10000m1022hPa82%
21-Apr-2024 09:00Light Rain12°C7 mph, NE77%10000m1022hPa62%
21-Apr-2024 12:00Light Rain14°C7 mph, E88%10000m1022hPa50%
21-Apr-2024 15:00Light Rain12°C7 mph, NE100%10000m1022hPa61%
21-Apr-2024 18:00Light Rain8°C11 mph, NE100%10000m1023hPa83%
21-Apr-2024 21:00Light Rain6°C13 mph, NE100%10000m1021hPa89%
22-Apr-2024 00:00Moderate Rain4°C18 mph, N100%5667m1017hPa94%
22-Apr-2024 03:00Snow1°C18 mph, N100%86m1015hPa97%
22-Apr-2024 06:00Light Rain2°C16 mph, NE100%10000m1013hPa94%
22-Apr-2024 09:00Light Rain2°C13 mph, NE100%10000m1011hPa94%
22-Apr-2024 12:00Light Rain2°C13 mph, NE100%10000m1011hPa95%
22-Apr-2024 15:00Light Rain2°C11 mph, NE100%10000m1010hPa96%
22-Apr-2024 18:00Light Rain2°C11 mph, NE100%4819m1010hPa97%
22-Apr-2024 21:00Light Rain2°C9 mph, NE100%703m1009hPa98%